createdAt,value
2023-02-17T00:00:17.125Z,0.12
2023-02-17T00:02:45.487Z,0.15
2023-02-17T00:05:14.117Z,0.15
2023-02-17T00:07:42.237Z,0.12
2023-02-17T00:10:11.832Z,0.15
2023-02-17T00:12:40.139Z,0.21
2023-02-17T00:15:08.786Z,0.22
2023-02-17T00:17:37.756Z,0.17
2023-02-17T00:20:06.749Z,0.18
2023-02-17T00:22:36.088Z,0.23
2023-02-17T00:25:05.107Z,0.24
2023-02-17T00:27:33.715Z,0.18
2023-02-17T00:30:01.981Z,0.12
2023-02-17T00:32:30.219Z,0.07
2023-02-17T00:34:58.630Z,0.08
2023-02-17T00:37:27.258Z,0.10
2023-02-17T00:39:56.669Z,0.11
2023-02-17T00:42:25.300Z,0.06
2023-02-17T00:44:53.800Z,0.01
2023-02-17T00:47:21.997Z,-0.03
2023-02-17T00:49:50.189Z,-0.01
2023-02-17T00:52:18.761Z,0.03
2023-02-17T00:54:47.299Z,0.06
2023-02-17T00:57:15.601Z,0.06
2023-02-17T00:59:44.198Z,0.02
2023-02-17T01:02:12.308Z,-0.03
2023-02-17T01:04:41.284Z,-0.06
2023-02-17T01:08:13.902Z,-0.02
2023-02-17T01:10:45.504Z,-0.01
2023-02-17T01:13:15.317Z,0.02
2023-02-17T01:15:47.921Z,-0.01
2023-02-17T01:18:17.071Z,-0.05
2023-02-17T01:20:45.486Z,-0.07
2023-02-17T01:23:19.460Z,-0.07
2023-02-17T01:25:47.864Z,-0.00
2023-02-17T01:28:19.608Z,0.10
2023-02-17T01:30:48.586Z,0.17
2023-02-17T01:33:17.049Z,0.27
2023-02-17T01:35:46.573Z,0.29
2023-02-17T01:38:14.651Z,0.31
2023-02-17T01:40:47.729Z,0.34
2023-02-17T01:43:17.555Z,0.41
2023-02-17T01:46:06.603Z,0.52
2023-02-17T01:48:38.269Z,0.59
2023-02-17T01:51:08.766Z,0.62
2023-02-17T01:53:40.134Z,0.62
2023-02-17T01:56:08.386Z,0.63
2023-02-17T01:58:40.355Z,0.70
2023-02-17T02:01:08.695Z,0.77
2023-02-17T02:03:37.568Z,0.83
2023-02-17T02:06:08.559Z,0.84
2023-02-17T02:08:48.749Z,0.83
2023-02-17T02:11:16.931Z,0.83
2023-02-17T02:13:49.963Z,0.89
2023-02-17T02:16:52.506Z,0.93
2023-02-17T02:19:39.427Z,0.97
2023-02-17T02:22:27.250Z,0.95
2023-02-17T02:25:14.009Z,0.92
2023-02-17T02:28:07.389Z,0.91
2023-02-17T02:31:02.256Z,0.97
2023-02-17T02:33:50.325Z,1.01
2023-02-17T02:36:30.690Z,1.05
2023-02-17T02:39:12.885Z,1.03
2023-02-17T02:41:44.331Z,1.02
2023-02-17T02:44:14.583Z,1.04
2023-02-17T02:46:42.810Z,1.07
2023-02-17T02:49:11.362Z,1.14
2023-02-17T02:52:02.204Z,1.18
2023-02-17T02:54:48.945Z,1.19
2023-02-17T02:57:23.184Z,1.14
2023-02-17T03:00:01.914Z,1.11
2023-02-17T03:02:44.154Z,1.16
2023-02-17T03:05:16.420Z,1.22
2023-02-17T03:08:06.500Z,1.22
2023-02-17T03:10:36.013Z,1.19
2023-02-17T03:13:04.493Z,1.18
2023-02-17T03:15:33.841Z,1.22
2023-02-17T03:18:04.318Z,1.26
2023-02-17T03:20:36.182Z,1.23
2023-02-17T03:23:06.994Z,1.17
2023-02-17T03:25:36.783Z,1.15
2023-02-17T03:28:05.491Z,1.19
2023-02-17T03:30:35.237Z,1.24
2023-02-17T03:33:03.693Z,1.22
2023-02-17T03:35:32.440Z,1.19
2023-02-17T03:38:00.603Z,1.17
2023-02-17T03:40:28.997Z,1.21
2023-02-17T03:42:57.795Z,1.27
2023-02-17T03:45:26.063Z,1.30
2023-02-17T03:47:57.912Z,1.29
2023-02-17T03:50:26.194Z,1.28
2023-02-17T03:52:54.522Z,1.23
2023-02-17T03:55:22.684Z,1.28
2023-02-17T03:57:50.900Z,1.33
2023-02-17T04:00:19.363Z,1.37
2023-02-17T04:02:48.274Z,1.37
2023-02-17T04:05:16.427Z,1.36
2023-02-17T04:07:44.661Z,1.34
2023-02-17T04:10:13.302Z,1.39
2023-02-17T04:12:42.573Z,1.43
2023-02-17T04:15:15.515Z,1.43
2023-02-17T04:17:44.048Z,1.39
2023-02-17T04:20:12.707Z,1.37
2023-02-17T04:22:41.083Z,1.36
2023-02-17T04:25:09.552Z,1.39
2023-02-17T04:27:38.941Z,1.43
2023-02-17T04:30:07.706Z,1.43
2023-02-17T04:32:37.174Z,1.40
2023-02-17T04:35:05.960Z,1.38
2023-02-17T04:37:34.104Z,1.44
2023-02-17T04:40:02.485Z,1.49
2023-02-17T04:42:30.955Z,1.49
2023-02-17T04:44:59.426Z,1.48
2023-02-17T04:47:28.261Z,1.46
2023-02-17T04:49:56.408Z,1.47
2023-02-17T04:52:24.492Z,1.52
2023-02-17T04:54:52.652Z,1.57
2023-02-17T04:57:20.760Z,1.58
2023-02-17T04:59:49.146Z,1.58
2023-02-17T05:02:17.364Z,1.60
2023-02-17T05:04:46.093Z,1.65
2023-02-17T05:07:14.440Z,1.72
2023-02-17T05:09:46.761Z,1.70
2023-02-17T05:12:15.131Z,1.67
2023-02-17T05:14:43.242Z,1.63
2023-02-17T05:17:13.243Z,1.62
2023-02-17T05:19:41.395Z,1.66
2023-02-17T05:22:09.537Z,1.71
2023-02-17T05:24:39.056Z,1.77
2023-02-17T05:27:09.633Z,1.79
2023-02-17T05:29:38.651Z,1.78
2023-02-17T05:32:07.162Z,1.76
2023-02-17T05:34:36.414Z,1.79
2023-02-17T05:37:04.612Z,1.83
2023-02-17T05:39:32.749Z,1.84
2023-02-17T05:42:00.859Z,1.81
2023-02-17T05:44:29.496Z,1.79
2023-02-17T05:46:57.724Z,1.79
2023-02-17T05:49:26.334Z,1.85
2023-02-17T05:51:54.755Z,1.90
2023-02-17T05:54:22.921Z,1.97
2023-02-17T05:56:51.347Z,1.98
2023-02-17T05:59:19.826Z,1.96
2023-02-17T06:01:47.897Z,1.91
2023-02-17T06:04:16.457Z,1.93
2023-02-17T06:06:45.496Z,2.01
2023-02-17T06:09:13.715Z,2.03
2023-02-17T06:11:42.525Z,1.97
2023-02-17T06:14:10.878Z,1.94
2023-02-17T06:16:42.415Z,1.95
2023-02-17T06:19:10.532Z,2.00
2023-02-17T06:21:39.044Z,2.01
2023-02-17T06:24:07.364Z,2.04
2023-02-17T06:26:36.554Z,2.03
2023-02-17T06:29:06.037Z,1.99
2023-02-17T06:31:35.066Z,1.94
2023-02-17T06:34:05.425Z,1.98
2023-02-17T06:36:34.718Z,2.05
2023-02-17T06:39:03.236Z,2.06
2023-02-17T06:41:31.421Z,2.06
2023-02-17T06:43:59.499Z,2.02
2023-02-17T06:46:27.676Z,2.08
2023-02-17T06:48:55.822Z,2.12
2023-02-17T06:51:24.235Z,2.13
2023-02-17T06:53:52.312Z,2.14
2023-02-17T06:56:21.244Z,2.18
2023-02-17T06:58:49.525Z,2.23
2023-02-17T07:01:19.321Z,2.20
2023-02-17T07:03:47.894Z,2.18
2023-02-17T07:06:16.668Z,2.24
2023-02-17T07:08:45.360Z,2.27
2023-02-17T07:11:14.120Z,2.24
2023-02-17T07:13:43.165Z,2.26
2023-02-17T07:16:12.330Z,2.31
2023-02-17T07:18:40.596Z,2.31
2023-02-17T07:21:09.095Z,2.27
2023-02-17T07:23:38.008Z,2.26
2023-02-17T07:26:09.178Z,2.32
2023-02-17T07:28:37.988Z,2.35
2023-02-17T07:31:09.863Z,2.33
2023-02-17T07:33:38.476Z,2.35
2023-02-17T07:36:15.793Z,2.40
2023-02-17T07:38:43.887Z,2.42
2023-02-17T07:41:17.006Z,2.40
2023-02-17T07:43:45.415Z,2.40
2023-02-17T07:46:13.744Z,2.44
2023-02-17T07:48:41.922Z,2.38
2023-02-17T07:51:12.052Z,2.33
2023-02-17T07:53:40.198Z,2.33
2023-02-17T07:56:12.760Z,2.36
2023-02-17T07:58:41.938Z,2.31
2023-02-17T08:01:11.953Z,2.30
2023-02-17T08:03:40.441Z,2.31
2023-02-17T08:06:16.528Z,2.31
2023-02-17T08:09:03.158Z,2.29
2023-02-17T08:11:51.227Z,2.30
2023-02-17T08:14:21.157Z,2.29
2023-02-17T08:16:50.818Z,2.23
2023-02-17T08:19:18.928Z,2.18
2023-02-17T08:21:47.054Z,2.25
2023-02-17T08:24:16.382Z,2.30
2023-02-17T08:26:44.852Z,2.31
2023-02-17T08:29:13.089Z,2.40
2023-02-17T08:31:41.452Z,2.43
2023-02-17T08:34:10.777Z,2.39
2023-02-17T08:36:39.982Z,2.34
2023-02-17T08:39:14.579Z,2.36
2023-02-17T08:41:43.268Z,2.38
2023-02-17T08:44:14.338Z,2.35
2023-02-17T08:46:42.718Z,2.33
2023-02-17T08:49:11.563Z,2.35
2023-02-17T08:51:39.949Z,2.38
2023-02-17T08:54:08.313Z,2.38
2023-02-17T08:56:39.984Z,2.34
2023-02-17T08:59:09.584Z,2.34
2023-02-17T09:01:37.983Z,2.34
2023-02-17T09:04:07.671Z,2.36
2023-02-17T09:06:59.039Z,2.37
2023-02-17T09:09:27.436Z,2.38
2023-02-17T09:11:58.366Z,2.41
2023-02-17T09:14:27.758Z,2.43
2023-02-17T09:16:56.164Z,2.39
2023-02-17T09:19:25.285Z,2.36
2023-02-17T09:21:53.494Z,2.42
2023-02-17T09:24:24.975Z,2.47
2023-02-17T09:26:54.161Z,2.46
2023-02-17T09:29:22.460Z,2.46
2023-02-17T09:31:50.646Z,2.47
2023-02-17T09:34:19.120Z,2.43
2023-02-17T09:36:47.384Z,2.40
2023-02-17T09:39:16.030Z,2.42
2023-02-17T09:41:49.984Z,2.47
2023-02-17T09:44:35.512Z,2.48
2023-02-17T09:47:26.153Z,2.44
2023-02-17T09:49:57.171Z,2.43
2023-02-17T09:52:44.358Z,2.47
2023-02-17T09:55:17.475Z,2.49
2023-02-17T09:58:06.741Z,2.48
2023-02-17T10:00:44.717Z,2.45
2023-02-17T10:03:19.715Z,2.50
2023-02-17T10:05:56.468Z,2.48
2023-02-17T10:08:27.997Z,2.46
2023-02-17T10:11:08.741Z,2.51
2023-02-17T10:13:38.015Z,2.57
2023-02-17T10:16:09.614Z,2.65
2023-02-17T10:18:41.680Z,2.68
2023-02-17T10:21:19.575Z,2.63
2023-02-17T10:23:48.114Z,2.59
2023-02-17T10:26:48.458Z,2.67
2023-02-17T10:29:37.633Z,2.74
2023-02-17T10:32:20.018Z,2.63
2023-02-17T10:35:14.503Z,2.55
2023-02-17T10:37:50.456Z,2.62
2023-02-17T10:40:26.967Z,2.63
2023-02-17T10:43:04.305Z,2.62
2023-02-17T10:45:41.089Z,2.68
2023-02-17T10:48:12.562Z,2.70
2023-02-17T10:50:44.388Z,2.65
2023-02-17T10:53:21.385Z,2.60
2023-02-17T10:55:59.069Z,2.59
2023-02-17T10:58:46.669Z,2.61
2023-02-17T11:01:15.950Z,2.59
2023-02-17T11:03:44.163Z,2.63
2023-02-17T11:06:17.999Z,2.71
2023-02-17T11:08:51.296Z,2.74
2023-02-17T11:11:31.042Z,2.76
2023-02-17T11:14:19.669Z,2.79
2023-02-17T11:16:53.850Z,2.83
2023-02-17T11:19:29.600Z,2.78
2023-02-17T11:21:58.845Z,2.68
2023-02-17T11:24:27.855Z,2.62
2023-02-17T11:27:04.836Z,2.66
2023-02-17T11:29:34.336Z,2.65
2023-02-17T11:32:08.965Z,2.64
2023-02-17T11:34:38.882Z,2.66
2023-02-17T11:37:10.173Z,2.63
2023-02-17T11:39:43.135Z,2.53
2023-02-17T11:42:29.344Z,2.46
2023-02-17T11:45:18.235Z,2.51
2023-02-17T11:48:07.015Z,2.60
2023-02-17T11:50:47.599Z,2.62
2023-02-17T11:53:37.477Z,2.66
2023-02-17T11:56:17.109Z,2.66
2023-02-17T11:59:27.236Z,2.59
2023-02-17T12:02:44.510Z,2.51
2023-02-17T13:06:32.494Z,1.25
2023-02-17T13:09:26.210Z,1.42
2023-02-17T13:11:54.350Z,1.59
2023-02-17T13:14:26.597Z,1.72
2023-02-17T13:16:55.546Z,1.85
2023-02-17T13:19:31.002Z,1.94
2023-02-17T13:22:02.460Z,2.04
2023-02-17T13:24:39.520Z,2.19
2023-02-17T13:27:32.588Z,2.31
2023-02-17T13:30:11.161Z,2.36
2023-02-17T13:32:40.048Z,2.40
2023-02-17T13:35:29.702Z,2.42
2023-02-17T13:38:01.200Z,2.46
2023-02-17T13:40:29.888Z,2.51
2023-02-17T13:43:11.573Z,2.54
2023-02-17T13:45:44.277Z,2.59
2023-02-17T13:48:29.906Z,2.64
2023-02-17T13:50:59.664Z,2.76
2023-02-17T13:53:41.257Z,2.82
2023-02-17T13:56:12.571Z,2.81
2023-02-17T13:58:41.710Z,2.73
2023-02-17T14:01:17.685Z,2.71
2023-02-17T14:03:51.853Z,2.71
2023-02-17T14:06:28.290Z,2.75
2023-02-17T14:08:56.594Z,2.87
2023-02-17T14:11:30.404Z,2.98
2023-02-17T14:14:04.749Z,3.05
2023-02-17T14:16:35.351Z,3.06
2023-02-17T14:19:08.620Z,3.07
2023-02-17T14:21:38.811Z,3.01
2023-02-17T14:24:09.780Z,2.97
2023-02-17T14:26:47.503Z,3.00
2023-02-17T14:29:15.805Z,3.03
2023-02-17T14:31:49.563Z,3.05
2023-02-17T14:34:21.181Z,3.02
2023-02-17T14:36:50.887Z,2.97
2023-02-17T14:39:20.295Z,2.87
2023-02-17T14:41:49.452Z,2.78
2023-02-17T14:44:17.683Z,2.76
2023-02-17T14:46:49.772Z,2.78
2023-02-17T14:49:18.088Z,2.78
2023-02-17T14:51:46.350Z,2.69
2023-02-17T14:54:16.656Z,2.59
2023-02-17T14:57:07.235Z,2.54
2023-02-17T14:59:37.335Z,2.57
2023-02-17T15:02:16.714Z,2.59
2023-02-17T15:04:46.410Z,2.60
2023-02-17T15:07:16.409Z,2.52
2023-02-17T15:09:47.398Z,2.45
2023-02-17T15:12:21.310Z,2.40
2023-02-17T15:14:49.573Z,2.33
2023-02-17T15:17:17.681Z,2.31
2023-02-17T15:19:45.948Z,2.28
2023-02-17T15:22:16.524Z,2.26
2023-02-17T15:24:50.270Z,2.18
2023-02-17T15:27:19.462Z,2.09
2023-02-17T15:29:48.133Z,2.03
2023-02-17T15:32:20.002Z,2.05
2023-02-17T15:34:49.704Z,2.09
2023-02-17T15:37:18.891Z,2.07
2023-02-17T15:39:47.037Z,1.99
2023-02-17T15:42:16.149Z,1.91
2023-02-17T15:44:46.460Z,1.85
2023-02-17T15:47:17.520Z,1.82
2023-02-17T15:49:45.793Z,1.80
2023-02-17T15:52:15.695Z,1.75
2023-02-17T15:54:44.516Z,1.65
2023-02-17T15:57:22.543Z,1.53
2023-02-17T15:59:55.057Z,1.44
2023-02-17T16:02:25.342Z,1.37
2023-02-17T16:04:54.216Z,1.30
2023-02-17T16:07:23.104Z,1.20
2023-02-17T16:09:52.587Z,1.07
2023-02-17T16:12:26.719Z,1.00
2023-02-17T16:14:55.871Z,0.99
2023-02-17T16:17:28.138Z,0.96
2023-02-17T16:19:56.466Z,0.87
2023-02-17T16:22:24.967Z,0.80
2023-02-17T16:25:13.923Z,0.78
2023-02-17T16:27:42.985Z,0.76
2023-02-17T16:30:33.448Z,0.75
2023-02-17T16:33:04.161Z,0.70
2023-02-17T16:35:32.450Z,0.61
2023-02-17T16:38:01.674Z,0.59
2023-02-17T16:40:31.321Z,0.60
2023-02-17T16:42:59.921Z,0.61
2023-02-17T16:45:29.791Z,0.57
2023-02-17T16:48:00.131Z,0.49
2023-02-17T16:50:32.736Z,0.52
2023-02-17T16:53:05.495Z,0.56
2023-02-17T16:55:34.960Z,0.56
2023-02-17T16:58:03.781Z,0.56
2023-02-17T17:00:32.663Z,0.51
2023-02-17T17:03:00.749Z,0.47
2023-02-17T17:05:29.444Z,0.49
2023-02-17T17:07:57.807Z,0.55
2023-02-17T17:10:30.654Z,0.59
2023-02-17T17:13:00.365Z,0.59
2023-02-17T17:15:29.166Z,0.55
2023-02-17T17:18:00.291Z,0.48
2023-02-17T17:20:35.614Z,0.48
2023-02-17T17:23:22.164Z,0.48
2023-02-17T17:25:50.452Z,0.44
2023-02-17T17:28:19.103Z,0.38
2023-02-17T17:30:47.531Z,0.29
2023-02-17T17:33:16.335Z,0.26
2023-02-17T17:35:44.650Z,0.25
2023-02-17T17:38:14.219Z,0.26
2023-02-17T17:40:53.553Z,0.26
2023-02-17T17:43:23.409Z,0.22
2023-02-17T17:45:54.468Z,0.15
2023-02-17T17:48:24.110Z,0.14
2023-02-17T17:50:52.818Z,0.16
2023-02-17T17:53:22.317Z,0.17
2023-02-17T17:55:50.610Z,0.17
2023-02-17T17:58:19.081Z,0.15
2023-02-17T18:00:51.771Z,0.09
2023-02-17T18:03:20.392Z,0.09
2023-02-17T18:05:49.589Z,0.11
2023-02-17T18:08:19.112Z,0.12
2023-02-17T18:10:47.276Z,0.12
2023-02-17T18:13:16.593Z,0.13
2023-02-17T18:15:46.017Z,0.08
2023-02-17T18:18:15.299Z,0.04
2023-02-17T18:20:44.378Z,0.06
2023-02-17T18:23:12.783Z,0.07
2023-02-17T18:25:41.346Z,0.09
2023-02-17T18:28:09.646Z,0.10
2023-02-17T18:30:37.830Z,0.09
2023-02-17T18:33:07.828Z,0.08
2023-02-17T18:35:37.692Z,0.03
2023-02-17T18:38:06.227Z,0.01
2023-02-17T18:40:38.051Z,0.05
2023-02-17T18:43:06.879Z,0.07
2023-02-17T18:45:35.114Z,0.08
2023-02-17T18:48:03.356Z,0.07
2023-02-17T18:50:34.081Z,0.05
2023-02-17T18:53:05.363Z,-0.00
2023-02-17T18:55:37.092Z,0.01
2023-02-17T18:58:05.716Z,0.05
2023-02-17T19:00:33.919Z,0.10
2023-02-17T19:03:05.983Z,0.13
2023-02-17T19:05:34.577Z,0.12
2023-02-17T19:08:08.735Z,0.07
2023-02-17T19:10:36.991Z,0.10
2023-02-17T19:13:06.188Z,0.13
2023-02-17T19:15:34.525Z,0.14
2023-02-17T19:18:02.698Z,0.18
2023-02-17T19:20:33.762Z,0.17
2023-02-17T19:23:02.622Z,0.14
2023-02-17T19:25:31.198Z,0.17
2023-02-17T19:27:59.460Z,0.21
2023-02-17T19:30:28.481Z,0.23
2023-02-17T19:32:56.706Z,0.27
2023-02-17T19:35:27.279Z,0.30
2023-02-17T19:37:56.165Z,0.27
2023-02-17T19:40:24.612Z,0.28
2023-02-17T19:42:55.447Z,0.32
2023-02-17T19:45:23.856Z,0.35
2023-02-17T19:47:52.156Z,0.36
2023-02-17T19:50:20.518Z,0.35
2023-02-17T19:52:49.018Z,0.31
2023-02-17T19:55:17.233Z,0.31
2023-02-17T19:57:45.860Z,0.33
2023-02-17T20:00:14.820Z,0.34
2023-02-17T20:02:43.265Z,0.36
2023-02-17T20:05:12.324Z,0.37
2023-02-17T20:07:41.076Z,0.33
2023-02-17T20:10:14.887Z,0.28
2023-02-17T20:12:44.522Z,0.30
2023-02-17T20:15:12.646Z,0.34
2023-02-17T20:17:41.553Z,0.37
2023-02-17T20:20:11.220Z,0.37
2023-02-17T20:22:40.116Z,0.37
2023-02-17T20:25:08.754Z,0.34
2023-02-17T20:27:37.082Z,0.34
2023-02-17T20:30:07.131Z,0.37
2023-02-17T20:32:36.150Z,0.40
2023-02-17T20:35:05.179Z,0.43
2023-02-17T20:37:34.015Z,0.45
2023-02-17T20:40:04.001Z,0.42
2023-02-17T20:42:33.522Z,0.40
2023-02-17T20:45:01.847Z,0.41
2023-02-17T20:47:30.201Z,0.47
2023-02-17T20:49:59.039Z,0.51
2023-02-17T20:52:28.021Z,0.56
2023-02-17T20:54:57.299Z,0.58
2023-02-17T20:57:26.080Z,0.54
2023-02-17T20:59:54.261Z,0.54
2023-02-17T21:02:26.587Z,0.56
2023-02-17T21:04:54.945Z,0.57
2023-02-17T21:07:23.506Z,0.59
2023-02-17T21:09:54.499Z,0.60
2023-02-17T21:12:22.994Z,0.56
2023-02-17T21:14:52.245Z,0.52
2023-02-17T21:17:20.978Z,0.54
2023-02-17T21:19:50.890Z,0.57
2023-02-17T21:22:20.020Z,0.60
2023-02-17T21:24:49.599Z,0.62
2023-02-17T21:27:18.408Z,0.60
2023-02-17T21:29:46.555Z,0.60
2023-02-17T21:32:15.097Z,0.63
2023-02-17T21:34:43.542Z,0.64
2023-02-17T21:37:11.863Z,0.71
2023-02-17T21:39:40.256Z,0.73
2023-02-17T21:42:08.646Z,0.69
2023-02-17T21:44:52.894Z,0.67
2023-02-17T21:47:21.401Z,0.71
2023-02-17T21:49:53.198Z,0.75
2023-02-17T21:52:22.057Z,0.78
2023-02-17T21:54:51.910Z,0.81
2023-02-17T21:57:20.294Z,0.83
2023-02-17T21:59:53.862Z,0.81
2023-02-17T22:02:24.463Z,0.85
2023-02-17T22:04:56.542Z,0.88
2023-02-17T22:07:25.186Z,0.92
2023-02-17T22:09:53.426Z,0.93
2023-02-17T22:12:21.474Z,0.91
2023-02-17T22:14:49.811Z,0.92
2023-02-17T22:17:22.030Z,0.94
2023-02-17T22:19:50.190Z,0.95
2023-02-17T22:22:18.278Z,0.94
2023-02-17T22:24:46.410Z,0.91
2023-02-17T22:27:14.734Z,0.95
2023-02-17T22:29:42.953Z,1.02
2023-02-17T22:32:11.103Z,1.05
2023-02-17T22:34:39.477Z,1.08
2023-02-17T22:37:07.769Z,1.10
2023-02-17T22:39:36.705Z,1.06
2023-02-17T22:42:04.871Z,1.02
2023-02-17T22:44:33.058Z,1.07
2023-02-17T22:47:01.333Z,1.12
2023-02-17T22:49:29.475Z,1.16
2023-02-17T22:51:58.792Z,1.19
2023-02-17T22:54:27.450Z,1.20
2023-02-17T22:56:55.498Z,1.18
2023-02-17T22:59:24.262Z,1.24
2023-02-17T23:01:52.885Z,1.29
2023-02-17T23:04:21.889Z,1.32
2023-02-17T23:06:50.030Z,1.34
2023-02-17T23:09:19.007Z,1.33
2023-02-17T23:11:50.369Z,1.36
2023-02-17T23:14:40.302Z,1.41
2023-02-17T23:17:11.417Z,1.43
2023-02-17T23:19:42.868Z,1.43
2023-02-17T23:22:16.027Z,1.41
2023-02-17T23:24:47.541Z,1.44
2023-02-17T23:27:15.950Z,1.48
2023-02-17T23:29:44.013Z,1.50
2023-02-17T23:32:12.394Z,1.49
2023-02-17T23:34:41.778Z,1.43
2023-02-17T23:37:09.824Z,1.36
2023-02-17T23:39:38.275Z,1.38
2023-02-17T23:42:08.799Z,1.40
2023-02-17T23:44:38.442Z,1.43
2023-02-17T23:47:06.519Z,1.44
2023-02-17T23:49:35.272Z,1.44
2023-02-17T23:52:03.518Z,1.39
2023-02-17T23:54:33.937Z,1.39
2023-02-17T23:57:02.114Z,1.39
2023-02-17T23:59:30.429Z,1.41
